Lanesville, Illinois
Current Conditions -  °F | °C
As of 4:52 AM on Friday 31 Oct 2014 (Local Time) from KSPI Reporting Station
Overcast Overcast  
Wind Chill: 43°   Ceiling: 5000
Heat Index: 47°   Visibility: 10mi
Dew Point: 41°   Wind: 9mph
Humidity: 80%   Direction: 330°NNW
Pressure: 30.11"   Gusts: NA
Location:  39.8448°N, 89.3474°W
Report Text: KSPI 310952Z AUTO 33008KT 10SM FEW042 BKN050 OVC060 08/05 A3011 RMK AO2 SLP197 T00830050
Loading
Personal Weather Stations






























Interactive Weather Map New forecast layout! Learn more

10-Day Weather Forecast

Advertisements
Track Severe Weather on mobile